Time;durP1;ratioP1;P1;durP2;ratioP2;P2;SDS_P1;SDS_P2;PMS_P1;PMS_P2;Temp;Humidity;BMP_temperature;BMP_pressure;BME280_temperature;BME280_humidity;BME280_pressure;Samples;Min_cycle;Max_cycle;Signal;HPM_P1;HPM_P2
2022/03/26 00:01:41;;;;;;;28.63;21.90;;;10.90;45.90;;;;;;5033912;28;20254;-52
2022/03/26 00:04:06;;;;;;;28.00;22.30;;;10.80;46.00;;;;;;5033678;28;20160;-45
2022/03/26 00:06:32;;;;;;;26.30;20.20;;;10.80;46.00;;;;;;5034171;28;20645;-47
2022/03/26 00:08:58;;;;;;;29.07;20.57;;;10.80;45.80;;;;;;5033836;28;20183;-46
2022/03/26 00:11:24;;;;;;;28.63;20.77;;;10.70;45.80;;;;;;5033678;28;20545;-47
2022/03/26 00:13:49;;;;;;;26.60;21.27;;;10.70;45.80;;;;;;5018200;23;20224;-51
2022/03/26 00:16:15;;;;;;;27.93;20.93;;;10.70;45.90;;;;;;4993951;28;20185;-50
2022/03/26 00:18:41;;;;;;;27.67;20.60;;;10.70;45.90;;;;;;4994025;28;20166;-53
2022/03/26 00:21:06;;;;;;;28.00;21.23;;;10.70;46.10;;;;;;4994071;28;20237;-51
2022/03/26 00:23:33;;;;;;;27.90;21.07;;;10.70;46.20;;;;;;4993500;28;20193;-54
2022/03/26 00:25:59;;;;;;;27.70;20.73;;;10.70;46.30;;;;;;4994185;28;20205;-56
2022/03/26 00:28:25;;;;;;;30.33;21.07;;;10.60;46.20;;;;;;4994006;28;20185;-54
2022/03/26 00:30:51;;;;;;;27.53;20.40;;;10.60;46.20;;;;;;4993319;28;20177;-51
2022/03/26 00:33:17;;;;;;;26.57;20.13;;;10.60;46.20;;;;;;4993464;28;20193;-54
2022/03/26 00:35:43;;;;;;;27.13;20.70;;;10.50;46.00;;;;;;4993880;28;20209;-52
2022/03/26 00:38:08;;;;;;;27.47;19.73;;;10.50;46.40;;;;;;4993714;28;20173;-53
2022/03/26 00:40:34;;;;;;;28.80;20.53;;;10.50;46.30;;;;;;4993825;28;20634;-52
2022/03/26 00:43:00;;;;;;;26.57;19.90;;;10.50;46.50;;;;;;4993461;28;20197;-52
2022/03/26 00:45:29;;;;;;;28.53;20.53;;;10.70;46.50;;;;;;4993355;28;20287;-53
2022/03/26 00:47:59;;;;;;;27.90;20.47;;;10.40;46.20;;;;;;4993696;28;20177;-50
2022/03/26 00:50:24;;;;;;;26.37;20.07;;;10.40;46.40;;;;;;4993556;28;20603;-52
2022/03/26 00:52:50;;;;;;;30.10;20.50;;;10.40;46.50;;;;;;4993221;28;20286;-58
2022/03/26 00:55:16;;;;;;;32.60;20.77;;;10.30;46.50;;;;;;4993325;28;20316;-52
2022/03/26 00:57:41;;;;;;;27.23;19.73;;;10.40;46.70;;;;;;4993677;28;20653;-50
2022/03/26 01:00:09;;;;;;;27.30;20.13;;;10.30;46.40;;;;;;4992899;28;20174;-56
2022/03/26 01:02:35;;;;;;;26.27;19.43;;;10.30;46.40;;;;;;4991579;28;20280;-53
2022/03/26 01:05:00;;;;;;;29.17;20.03;;;10.30;46.60;;;;;;4991853;28;20587;-51
2022/03/26 01:07:26;;;;;;;27.60;20.73;;;10.30;46.50;;;;;;4991846;28;20177;-53
2022/03/26 01:09:53;;;;;;;29.43;20.97;;;10.20;46.40;;;;;;4992639;28;20192;-51
2022/03/26 01:12:20;;;;;;;26.27;19.67;;;10.20;46.60;;;;;;4992800;28;20708;-58
2022/03/26 01:14:46;;;;;;;27.20;20.10;;;10.20;46.80;;;;;;4992046;28;20201;-52
2022/03/26 01:17:12;;;;;;;24.93;19.73;;;10.20;46.90;;;;;;4993182;28;20261;-52
2022/03/26 01:19:38;;;;;;;27.77;19.40;;;10.10;46.80;;;;;;4993162;28;20180;-58
2022/03/26 01:22:04;;;;;;;26.60;20.47;;;10.10;46.80;;;;;;4993048;28;20172;-52
2022/03/26 01:24:30;;;;;;;28.90;20.07;;;10.10;46.80;;;;;;4975458;28;20654;-59
2022/03/26 01:26:57;;;;;;;30.37;20.37;;;10.10;46.90;;;;;;4993066;28;20177;-56
2022/03/26 01:29:22;;;;;;;26.53;19.10;;;10.00;46.80;;;;;;4993030;28;20185;-59
2022/03/26 01:31:48;;;;;;;28.17;20.17;;;10.00;46.80;;;;;;4991773;28;20185;-50
2022/03/26 01:34:14;;;;;;;25.53;20.13;;;10.00;47.00;;;;;;4992654;28;20205;-51
2022/03/26 01:36:41;;;;;;;29.97;20.13;;;9.90;48.00;;;;;;4991636;28;20181;-50
2022/03/26 01:39:06;;;;;;;27.73;19.40;;;9.90;48.70;;;;;;4991561;28;20211;-55
2022/03/26 01:41:33;;;;;;;26.13;19.67;;;9.90;48.20;;;;;;4990712;28;20611;-52
2022/03/26 01:43:59;;;;;;;26.83;19.33;;;9.90;48.20;;;;;;4991731;28;20284;-49
2022/03/26 01:46:24;;;;;;;27.63;20.03;;;9.90;48.30;;;;;;4992469;28;20315;-50
2022/03/26 01:48:50;;;;;;;28.43;20.37;;;9.90;48.40;;;;;;4992731;28;20181;-50
2022/03/26 01:51:17;;;;;;;29.57;20.27;;;9.90;48.40;;;;;;4992344;28;20173;-50
2022/03/26 01:53:52;;;;;;;26.90;20.70;;;9.80;48.50;;;;;;4992067;28;20670;-51
2022/03/26 01:56:19;;;;;;;28.03;19.87;;;9.80;48.50;;;;;;4992488;28;20224;-50
2022/03/26 01:58:45;;;;;;;27.07;19.27;;;9.80;48.70;;;;;;4992351;28;20223;-51
2022/03/26 02:01:11;;;;;;;28.43;20.40;;;9.80;48.70;;;;;;4992455;28;20174;-52
2022/03/26 02:03:37;;;;;;;27.73;18.87;;;9.80;48.70;;;;;;4991421;28;20658;-51
2022/03/26 02:06:03;;;;;;;28.60;20.77;;;9.80;48.80;;;;;;4992194;28;20208;-49
2022/03/26 02:08:29;;;;;;;24.77;18.80;;;9.80;48.60;;;;;;4992287;28;20181;-50
2022/03/26 02:10:55;;;;;;;28.03;20.37;;;9.70;48.70;;;;;;4991964;28;20187;-51
2022/03/26 02:13:21;;;;;;;27.90;20.90;;;9.70;48.70;;;;;;4991701;28;20216;-49
2022/03/26 02:15:46;;;;;;;26.90;19.13;;;9.70;48.70;;;;;;4992377;28;20212;-50
2022/03/26 02:18:12;;;;;;;26.33;19.83;;;9.70;49.00;;;;;;4991506;28;20236;-52
2022/03/26 02:20:39;;;;;;;30.07;20.93;;;9.70;48.90;;;;;;4992088;28;20176;-51
2022/03/26 02:23:04;;;;;;;30.73;20.90;;;9.70;49.00;;;;;;4992001;28;20193;-51
2022/03/26 02:25:30;;;;;;;28.73;20.63;;;9.70;49.10;;;;;;4990736;28;20185;-56
2022/03/26 02:27:55;;;;;;;29.80;20.83;;;9.60;49.20;;;;;;4992202;28;20574;-49
2022/03/26 02:30:21;;;;;;;27.73;19.43;;;9.60;49.30;;;;;;4992217;28;20216;-50
2022/03/26 02:32:47;;;;;;;25.00;18.77;;;9.60;49.20;;;;;;4991818;28;20696;-51
2022/03/26 02:35:13;;;;;;;27.33;20.03;;;9.60;49.20;;;;;;4983989;28;20253;-52
2022/03/26 02:37:39;;;;;;;25.90;18.77;;;9.50;49.10;;;;;;4991669;28;20173;-55
2022/03/26 02:40:08;;;;;;;27.63;19.70;;;11.20;49.70;;;;;;4991453;28;20184;-50
2022/03/26 02:42:36;;;;;;;29.03;19.37;;;9.50;49.50;;;;;;4991544;28;20276;-52
2022/03/26 02:45:03;;;;;;;28.87;19.53;;;9.50;49.30;;;;;;4991924;28;20209;-50
2022/03/26 02:47:29;;;;;;;27.13;18.97;;;9.50;49.60;;;;;;4991966;28;20177;-51
2022/03/26 02:49:55;;;;;;;24.53;18.50;;;9.50;49.80;;;;;;4991584;28;20673;-53
2022/03/26 02:52:22;;;;;;;28.03;18.57;;;9.50;50.10;;;;;;4992136;28;20236;-57
2022/03/26 02:54:48;;;;;;;27.60;19.20;;;9.40;50.10;;;;;;4995269;28;20192;-54
2022/03/26 02:57:13;;;;;;;23.97;18.10;;;9.40;50.10;;;;;;4995654;28;20174;-56
2022/03/26 02:59:39;;;;;;;25.13;18.33;;;9.30;50.00;;;;;;4995735;28;20173;-49
2022/03/26 03:02:07;;;;;;;24.67;18.37;;;9.20;49.90;;;;;;4995499;28;20183;-52
2022/03/26 03:04:34;;;;;;;28.87;18.67;;;9.20;50.30;;;;;;4995584;28;20272;-50
2022/03/26 03:07:00;;;;;;;25.40;18.53;;;9.20;50.00;;;;;;4995505;28;20177;-50
2022/03/26 03:09:25;;;;;;;28.47;18.17;;;9.20;50.10;;;;;;4995628;28;20635;-50
2022/03/26 03:11:51;;;;;;;26.20;18.10;;;9.20;50.00;;;;;;4995442;28;20177;-56
2022/03/26 03:14:18;;;;;;;27.87;18.90;;;9.20;50.40;;;;;;4995001;28;20235;-49
2022/03/26 03:16:45;;;;;;;25.00;18.50;;;9.20;50.30;;;;;;4995268;28;20642;-54
2022/03/26 03:19:11;;;;;;;24.60;18.07;;;9.20;50.50;;;;;;4995320;28;20169;-50
2022/03/26 03:21:36;;;;;;;26.87;18.07;;;9.20;50.80;;;;;;4995310;28;20174;-50
2022/03/26 03:24:02;;;;;;;25.10;18.43;;;9.20;50.70;;;;;;4995020;28;20211;-52
2022/03/26 03:26:28;;;;;;;26.87;17.97;;;9.20;50.70;;;;;;4995141;28;20304;-57
2022/03/26 03:28:53;;;;;;;24.17;17.67;;;9.20;50.90;;;;;;4995235;28;20177;-50
2022/03/26 03:31:19;;;;;;;22.27;17.07;;;9.20;50.90;;;;;;4995208;28;20177;-50
2022/03/26 03:33:45;;;;;;;25.15;17.15;;;9.20;51.00;;;;;;4994752;28;20207;-53
2022/03/26 03:36:10;;;;;;;25.20;17.27;;;9.20;51.30;;;;;;4995188;28;20256;-54
2022/03/26 03:38:36;;;;;;;24.70;18.73;;;9.10;51.20;;;;;;4995068;28;20653;-51
2022/03/26 03:41:02;;;;;;;24.07;17.50;;;9.10;51.30;;;;;;4994963;28;20208;-50
2022/03/26 03:43:27;;;;;;;23.83;17.77;;;9.10;51.50;;;;;;4994600;28;20189;-52
2022/03/26 03:45:53;;;;;;;21.97;16.90;;;9.10;51.50;;;;;;4994904;28;20247;-49
2022/03/26 03:48:18;;;;;;;25.50;18.03;;;9.10;51.70;;;;;;4994837;28;20601;-50
2022/03/26 03:50:46;;;;;;;25.07;17.40;;;9.00;51.60;;;;;;4994824;28;20231;-52
2022/03/26 03:53:11;;;;;;;25.40;17.40;;;9.00;51.80;;;;;;4994465;28;20698;-50
2022/03/26 03:55:37;;;;;;;25.47;17.90;;;8.90;51.90;;;;;;4994945;28;20247;-52
2022/03/26 03:58:02;;;;;;;24.53;17.70;;;8.90;52.00;;;;;;4994804;28;20180;-52
2022/03/26 04:00:28;;;;;;;24.20;17.07;;;8.80;52.00;;;;;;4993373;28;20259;-50
2022/03/26 04:02:54;;;;;;;24.53;17.53;;;8.80;52.40;;;;;;4994353;28;20603;-50
2022/03/26 04:05:20;;;;;;;25.27;16.87;;;8.80;52.40;;;;;;4993795;28;20180;-50
2022/03/26 04:07:46;;;;;;;24.83;17.00;;;8.80;52.30;;;;;;4994554;28;20177;-50
2022/03/26 04:10:13;;;;;;;23.37;16.83;;;8.80;52.20;;;;;;4994503;28;20223;-50
2022/03/26 04:12:40;;;;;;;22.50;16.87;;;8.80;52.50;;;;;;4993942;28;20215;-49
2022/03/26 04:15:07;;;;;;;24.07;17.10;;;8.60;52.50;;;;;;4994424;28;20212;-50
2022/03/26 04:17:33;;;;;;;27.20;18.07;;;8.60;52.70;;;;;;4994372;28;20530;-50
2022/03/26 04:19:59;;;;;;;21.90;16.33;;;8.50;53.00;;;;;;4994053;28;20227;-50
2022/03/26 04:22:25;;;;;;;25.97;17.60;;;8.50;53.10;;;;;;4993932;28;20185;-54
2022/03/26 04:24:50;;;;;;;24.90;16.77;;;8.50;53.00;;;;;;4994153;28;20661;-51
2022/03/26 04:27:16;;;;;;;23.70;16.87;;;8.60;53.10;;;;;;4994411;28;20253;-53
2022/03/26 04:29:42;;;;;;;23.67;16.90;;;8.60;53.00;;;;;;4994167;28;20185;-52
2022/03/26 04:32:10;;;;;;;27.77;16.93;;;8.60;53.00;;;;;;4993940;28;20175;-52
2022/03/26 04:34:36;;;;;;;20.50;16.20;;;8.70;53.00;;;;;;4993794;28;20582;-53
2022/03/26 04:37:02;;;;;;;23.73;16.77;;;8.70;53.10;;;;;;4993914;28;20220;-50
2022/03/26 04:39:28;;;;;;;25.03;16.63;;;8.60;53.10;;;;;;4993999;28;20170;-49
2022/03/26 04:41:54;;;;;;;26.00;15.90;;;8.60;53.40;;;;;;4993786;28;20179;-51
2022/03/26 04:44:19;;;;;;;22.87;15.93;;;8.60;53.40;;;;;;4993687;28;20550;-55
2022/03/26 04:46:45;;;;;;;24.50;16.70;;;8.60;53.50;;;;;;4993849;28;20177;-55
2022/03/26 04:49:11;;;;;;;26.97;16.73;;;8.60;53.60;;;;;;4993616;28;20555;-49
2022/03/26 04:51:36;;;;;;;24.00;16.03;;;8.60;53.70;;;;;;4993680;28;20174;-50
2022/03/26 04:54:02;;;;;;;20.97;16.30;;;8.50;53.60;;;;;;4993142;28;20197;-52
2022/03/26 04:56:28;;;;;;;22.30;16.20;;;8.50;53.80;;;;;;4993648;28;20176;-56
2022/03/26 04:58:55;;;;;;;22.10;16.03;;;8.60;54.10;;;;;;4993663;28;20635;-51
2022/03/26 05:01:22;;;;;;;21.47;16.23;;;8.60;53.90;;;;;;4993438;28;20646;-50
2022/03/26 05:03:48;;;;;;;23.20;16.57;;;8.50;53.80;;;;;;4993113;28;20217;-50
2022/03/26 05:06:13;;;;;;;23.27;16.33;;;8.60;54.00;;;;;;4993545;28;20212;-50
2022/03/26 05:08:39;;;;;;;24.10;17.50;;;8.50;54.00;;;;;;4993389;28;20165;-52
2022/03/26 05:11:05;;;;;;;22.47;15.80;;;8.50;54.20;;;;;;4993313;28;20174;-56
2022/03/26 05:13:31;;;;;;;25.57;17.53;;;8.40;54.30;;;;;;4992558;28;20201;-55
2022/03/26 05:15:57;;;;;;;22.87;16.47;;;8.30;55.00;;;;;;4993274;28;20204;-49
2022/03/26 05:18:22;;;;;;;24.23;16.67;;;8.20;55.30;;;;;;4993081;28;20728;-54
2022/03/26 05:20:48;;;;;;;23.43;17.13;;;8.10;55.70;;;;;;4975570;28;20237;-53
2022/03/26 05:23:14;;;;;;;25.40;18.67;;;8.10;56.10;;;;;;4992775;28;20185;-54
2022/03/26 05:25:39;;;;;;;26.60;18.10;;;8.00;56.00;;;;;;4993097;28;20173;-50
2022/03/26 05:28:05;;;;;;;27.17;18.97;;;8.00;56.40;;;;;;4992928;28;20204;-50
2022/03/26 05:30:31;;;;;;;28.30;18.63;;;8.00;56.30;;;;;;4992724;28;20235;-54
2022/03/26 05:32:56;;;;;;;26.13;19.13;;;8.00;56.40;;;;;;4992541;28;20200;-50
2022/03/26 05:35:22;;;;;;;29.77;20.13;;;8.00;56.30;;;;;;4992425;28;20227;-52
2022/03/26 05:37:49;;;;;;;25.77;20.00;;;8.00;56.60;;;;;;4992776;28;20177;-50
2022/03/26 05:40:17;;;;;;;25.17;19.33;;;8.00;56.40;;;;;;4992664;28;20252;-50
2022/03/26 05:42:44;;;;;;;28.57;19.33;;;8.10;56.30;;;;;;4992584;28;20189;-55
2022/03/26 05:45:10;;;;;;;26.70;18.70;;;8.10;56.50;;;;;;4992675;28;20165;-53
2022/03/26 05:47:37;;;;;;;28.47;19.90;;;8.20;56.50;;;;;;4992708;28;20177;-53
2022/03/26 05:50:05;;;;;;;25.10;18.67;;;8.20;56.30;;;;;;4992541;28;20173;-56
2022/03/26 05:52:31;;;;;;;26.70;17.80;;;8.20;56.30;;;;;;4992374;28;20201;-50
2022/03/26 05:54:56;;;;;;;22.00;16.80;;;8.20;56.50;;;;;;4992655;28;20204;-53
2022/03/26 05:57:22;;;;;;;25.77;17.47;;;8.30;56.80;;;;;;4992666;28;20181;-52
2022/03/26 05:59:48;;;;;;;21.50;15.53;;;8.30;56.90;;;;;;4992586;28;20176;-55
2022/03/26 06:02:14;;;;;;;19.73;15.50;;;8.40;56.70;;;;;;4992381;28;20173;-52
2022/03/26 06:04:45;;;;;;;23.00;16.40;;;8.40;56.40;;;;;;4992434;28;20177;-52
2022/03/26 06:07:11;;;;;;;25.53;16.83;;;8.50;56.30;;;;;;4992610;28;20169;-54
2022/03/26 06:09:37;;;;;;;24.40;17.20;;;8.60;56.30;;;;;;4991154;28;20232;-56
2022/03/26 06:12:04;;;;;;;22.43;16.67;;;8.60;56.10;;;;;;4992200;28;20717;-54
2022/03/26 06:14:30;;;;;;;24.87;16.77;;;8.70;56.00;;;;;;4993299;28;20252;-52
2022/03/26 06:16:56;;;;;;;26.50;17.23;;;8.80;56.30;;;;;;4975107;28;20534;-52
2022/03/26 06:19:22;;;;;;;22.00;16.00;;;8.80;57.50;;;;;;4992443;28;20169;-54
2022/03/26 06:21:48;;;;;;;21.60;15.70;;;8.80;57.80;;;;;;4992315;28;20176;-52
2022/03/26 06:24:14;;;;;;;24.43;16.17;;;8.90;57.80;;;;;;4992075;28;20558;-54
2022/03/26 06:26:43;;;;;;;19.00;15.90;;;9.00;57.80;;;;;;4992407;28;20185;-53
2022/03/26 06:29:09;;;;;;;22.17;16.33;;;9.10;57.40;;;;;;4996277;28;20169;-54
2022/03/26 06:31:35;;;;;;;22.17;15.17;;;9.20;57.20;;;;;;4996267;28;20260;-55
2022/03/26 06:34:00;;;;;;;19.63;15.03;;;9.40;56.10;;;;;;4995597;28;20327;-55
2022/03/26 06:36:26;;;;;;;21.10;14.83;;;9.50;55.80;;;;;;4996183;28;20169;-57
2022/03/26 06:38:52;;;;;;;21.47;15.70;;;9.50;55.70;;;;;;4996305;28;20173;-50
2022/03/26 06:41:18;;;;;;;18.97;14.77;;;9.70;55.40;;;;;;4996165;28;20166;-50
2022/03/26 06:43:45;;;;;;;20.90;14.60;;;9.80;55.30;;;;;;4995783;28;20566;-52
2022/03/26 06:46:11;;;;;;;20.20;15.13;;;9.90;55.40;;;;;;4995974;28;20201;-52
2022/03/26 06:48:37;;;;;;;23.93;15.13;;;10.00;54.60;;;;;;4996074;28;20199;-58
2022/03/26 06:51:06;;;;;;;21.17;15.30;;;10.10;54.80;;;;;;4995824;28;20173;-51
2022/03/26 06:53:33;;;;;;;23.30;17.67;;;10.10;55.00;;;;;;4994267;28;20689;-54
2022/03/26 06:55:59;;;;;;;24.37;19.23;;;10.20;57.00;;;;;;4989592;28;20189;-56
2022/03/26 06:58:25;;;;;;;24.30;19.43;;;10.30;57.80;;;;;;4976660;28;20191;-53
2022/03/26 07:00:51;;;;;;;22.97;18.43;;;10.20;57.20;;;;;;4994298;28;20169;-50
2022/03/26 07:03:17;;;;;;;23.33;19.10;;;10.30;57.30;;;;;;4993956;28;20243;-50
2022/03/26 07:05:42;;;;;;;24.50;19.13;;;10.30;57.30;;;;;;4994421;28;20638;-51
2022/03/26 07:08:09;;;;;;;22.27;17.70;;;10.30;57.00;;;;;;4994356;28;20654;-50
2022/03/26 07:10:35;;;;;;;23.03;17.70;;;10.40;57.30;;;;;;4994668;28;20173;-51
2022/03/26 07:13:01;;;;;;;22.23;17.73;;;10.50;57.00;;;;;;4994856;28;20296;-51
2022/03/26 07:15:28;;;;;;;22.43;18.10;;;10.70;57.20;;;;;;4995560;28;20280;-55
2022/03/26 07:17:54;;;;;;;22.83;18.10;;;10.80;57.30;;;;;;4999062;28;20718;-50
2022/03/26 07:20:20;;;;;;;20.83;17.77;;;10.90;58.80;;;;;;5009705;28;20256;-50
2022/03/26 07:22:45;;;;;;;21.93;17.00;;;11.00;58.90;;;;;;4995112;28;20201;-53
2022/03/26 07:25:11;;;;;;;23.47;17.73;;;11.10;57.70;;;;;;4995292;28;20197;-49
2022/03/26 07:27:37;;;;;;;22.70;18.57;;;11.30;58.20;;;;;;4977856;28;20182;-50
2022/03/26 07:30:05;;;;;;;20.40;17.23;;;11.30;59.10;;;;;;4994991;28;20196;-49
2022/03/26 07:32:31;;;;;;;23.83;18.50;;;11.30;59.20;;;;;;4994834;28;20849;-50
2022/03/26 07:34:56;;;;;;;20.43;17.20;;;11.40;58.70;;;;;;4994952;28;20247;-51
2022/03/26 07:37:22;;;;;;;21.33;17.87;;;11.50;58.90;;;;;;4994620;28;20182;-53
2022/03/26 07:39:48;;;;;;;21.57;17.90;;;11.70;57.20;;;;;;4993529;28;20306;-55
2022/03/26 07:42:14;;;;;;;23.50;19.00;;;11.90;57.40;;;;;;4995176;28;20200;-60
2022/03/26 07:44:39;;;;;;;22.27;17.10;;;11.90;59.50;;;;;;4983865;28;20298;-52
2022/03/26 07:47:05;;;;;;;20.00;16.80;;;12.00;58.10;;;;;;5005761;28;20220;-55
2022/03/26 07:49:32;;;;;;;21.23;17.30;;;12.10;56.20;;;;;;4994955;28;20205;-54
2022/03/26 07:51:57;;;;;;;20.03;16.80;;;12.20;55.50;;;;;;4992903;28;20184;-52
2022/03/26 07:54:23;;;;;;;22.93;17.40;;;12.50;55.90;;;;;;4988027;28;20205;-57
2022/03/26 07:56:49;;;;;;;24.37;17.50;;;12.70;55.20;;;;;;4994087;28;20178;-50
2022/03/26 07:59:14;;;;;;;24.63;17.60;;;12.90;54.30;;;;;;4994590;28;20597;-50
2022/03/26 08:01:40;;;;;;;20.07;16.60;;;13.10;54.50;;;;;;4995893;28;20189;-53
2022/03/26 08:04:05;;;;;;;19.07;15.83;;;13.20;53.70;;;;;;4996256;28;20578;-57
2022/03/26 08:06:31;;;;;;;19.73;15.50;;;13.40;53.20;;;;;;4987263;28;20647;-50
2022/03/26 08:08:56;;;;;;;19.57;16.97;;;13.50;52.60;;;;;;4983555;28;20209;-52
2022/03/26 08:11:22;;;;;;;19.23;14.43;;;13.80;51.70;;;;;;4993092;28;20257;-54
2022/03/26 08:13:48;;;;;;;19.53;17.37;;;14.00;52.20;;;;;;4993945;28;20714;-52
2022/03/26 08:16:13;;;;;;;22.40;18.07;;;14.20;53.10;;;;;;4994445;28;20245;-51
2022/03/26 08:18:40;;;;;;;22.80;19.17;;;14.30;54.10;;;;;;4994252;28;20224;-54
2022/03/26 08:21:06;;;;;;;21.33;18.37;;;14.20;54.90;;;;;;4994338;28;20178;-49
2022/03/26 08:23:32;;;;;;;22.60;17.97;;;14.20;54.60;;;;;;4993708;28;20201;-50
2022/03/26 08:28:41;;;;;;;22.40;18.70;;;14.20;55.30;;;;;;4994036;28;20183;-53
2022/03/26 08:31:10;;;;;;;20.00;17.63;;;14.10;54.70;;;;;;4994156;28;20177;-52
2022/03/26 08:33:36;;;;;;;22.63;18.70;;;14.20;53.90;;;;;;4993514;28;20259;-52
2022/03/26 08:36:03;;;;;;;19.80;17.67;;;14.40;53.50;;;;;;4993899;28;20207;-51
2022/03/26 08:38:28;;;;;;;21.97;17.60;;;14.60;54.00;;;;;;4993845;28;20203;-50
2022/03/26 08:40:54;;;;;;;20.73;17.23;;;14.70;53.10;;;;;;4993714;28;20211;-55
2022/03/26 08:43:20;;;;;;;20.43;16.77;;;14.80;51.80;;;;;;4975780;28;20682;-50
2022/03/26 08:45:46;;;;;;;21.30;15.33;;;14.90;50.50;;;;;;4993736;28;20190;-49
2022/03/26 08:48:12;;;;;;;19.30;15.73;;;14.90;50.90;;;;;;4993885;28;20180;-50
2022/03/26 08:50:37;;;;;;;19.77;16.40;;;15.10;51.30;;;;;;4993204;28;20177;-49
2022/03/26 08:53:03;;;;;;;20.07;17.40;;;15.30;50.10;;;;;;4993379;28;20752;-51
2022/03/26 08:55:29;;;;;;;19.77;15.73;;;15.20;49.60;;;;;;4990759;28;20218;-55
2022/03/26 08:57:57;;;;;;;17.27;14.90;;;15.30;47.50;;;;;;4974718;28;20181;-52
2022/03/26 09:00:22;;;;;;;18.35;16.42;;;14.20;46.60;;;;;;4989224;28;20914;-49
2022/03/26 09:02:48;;;;;;;19.93;16.43;;;15.90;47.30;;;;;;4992555;28;20198;-51
2022/03/26 09:05:14;;;;;;;21.60;16.27;;;16.10;46.90;;;;;;4992336;28;20247;-52
2022/03/26 09:07:40;;;;;;;21.37;16.03;;;16.30;45.40;;;;;;4991232;28;20197;-54
2022/03/26 09:10:06;;;;;;;17.60;15.53;;;16.30;43.90;;;;;;4990599;28;20190;-51
2022/03/26 09:12:32;;;;;;;19.80;16.53;;;16.40;44.30;;;;;;4988784;28;20234;-50
2022/03/26 09:14:58;;;;;;;19.53;15.93;;;16.60;45.50;;;;;;4992576;28;20697;-52
2022/03/26 09:17:24;;;;;;;21.30;16.30;;;16.60;45.90;;;;;;4989916;28;20475;-51
2022/03/26 09:19:50;;;;;;;19.60;16.43;;;16.60;46.70;;;;;;4975146;28;20177;-51
2022/03/26 09:22:15;;;;;;;21.40;17.87;;;16.80;47.40;;;;;;4991107;28;21023;-50
2022/03/26 09:24:42;;;;;;;19.73;17.20;;;17.00;48.00;;;;;;5008894;28;20184;-53
2022/03/26 09:27:08;;;;;;;19.20;16.70;;;16.90;47.50;;;;;;4997932;28;20180;-54
2022/03/26 09:29:33;;;;;;;21.60;17.20;;;16.80;46.00;;;;;;5003631;28;20188;-56
2022/03/26 09:31:59;;;;;;;21.30;16.80;;;16.80;47.50;;;;;;4982161;28;20186;-47
2022/03/26 09:34:24;;;;;;;22.13;17.63;;;16.90;45.40;;;;;;4990553;28;20212;-51
2022/03/26 09:36:50;;;;;;;22.77;17.73;;;17.30;45.90;;;;;;4992390;28;20869;-53
2022/03/26 09:39:15;;;;;;;20.30;16.53;;;17.40;45.00;;;;;;4998747;28;20248;-55
2022/03/26 09:41:42;;;;;;;21.97;17.93;;;17.20;45.00;;;;;;5002414;28;20184;-51
2022/03/26 09:44:10;;;;;;;22.40;17.27;;;17.30;44.10;;;;;;5005423;28;20704;-51
2022/03/26 09:46:36;;;;;;;21.60;16.43;;;17.40;44.60;;;;;;4995749;28;20174;-57
2022/03/26 09:49:03;;;;;;;21.37;17.23;;;17.40;45.40;;;;;;5007645;28;20180;-54
2022/03/26 09:51:29;;;;;;;20.90;16.77;;;17.40;44.50;;;;;;5000338;28;20168;-58
2022/03/26 09:53:56;;;;;;;20.10;16.53;;;17.70;44.20;;;;;;4966430;28;20292;-56
2022/03/26 09:56:23;;;;;;;21.53;18.20;;;18.20;43.40;;;;;;5007418;28;20174;-49
2022/03/26 09:58:52;;;;;;;26.63;17.37;;;18.50;43.40;;;;;;4995518;28;20370;-57
2022/03/26 10:01:18;;;;;;;20.77;16.77;;;18.80;42.20;;;;;;5005102;28;20259;-52
2022/03/26 10:04:06;;;;;;;22.87;17.00;;;18.70;41.90;;;;;;4983826;28;20585;-51
2022/03/26 10:06:32;;;;;;;19.17;16.97;;;18.70;42.90;;;;;;4995044;28;20658;-53
2022/03/26 10:08:57;;;;;;;20.17;16.43;;;18.90;42.10;;;;;;4967335;28;20179;-51
2022/03/26 10:11:23;;;;;;;22.33;17.50;;;19.20;40.90;;;;;;4992007;28;20185;-55
2022/03/26 10:13:48;;;;;;;21.00;17.27;;;19.60;38.70;;;;;;4982768;28;20216;-54
2022/03/26 10:16:15;;;;;;;19.37;16.97;;;20.20;41.40;;;;;;4990115;28;20217;-53
2022/03/26 10:18:43;;;;;;;18.75;16.80;;;20.90;40.20;;;;;;4990559;28;20195;-56
2022/03/26 10:21:12;;;;;;;21.13;16.95;;;21.60;40.10;;;;;;4988157;28;20597;-53
2022/03/26 10:23:41;;;;;;;23.35;17.63;;;22.20;37.90;;;;;;4986832;28;20188;-53
2022/03/26 10:26:25;;;;;;;22.15;18.25;;;22.70;35.80;;;;;;4999500;28;20177;-56
2022/03/26 10:28:56;;;;;;;19.35;17.25;;;23.00;33.60;;;;;;5006503;28;20215;-57
2022/03/26 10:34:13;;;;;;;21.85;18.80;;;24.50;34.80;;;;;;4992464;28;20216;-53
2022/03/26 10:36:42;;;;;;;23.02;18.73;;;24.80;32.30;;;;;;4991739;28;20184;-52
2022/03/26 10:39:21;;;;;;;21.75;19.35;;;25.50;30.20;;;;;;5005382;28;20524;-57
2022/03/26 10:41:49;;;;;;;21.60;17.98;;;26.30;29.90;;;;;;4991255;28;20173;-52
2022/03/26 10:44:17;;;;;;;19.67;17.67;;;26.60;28.90;;;;;;4992501;28;20229;-55
2022/03/26 10:46:48;;;;;;;21.40;17.90;;;27.10;29.30;;;;;;4987946;28;20521;-51
2022/03/26 10:49:27;;;;;;;20.25;18.15;;;28.70;29.50;;;;;;4987092;28;20178;-51
2022/03/26 10:51:54;;;;;;;20.55;17.75;;;30.70;27.90;;;;;;4991273;28;20212;-51
2022/03/26 10:54:28;;;;;;;21.40;18.27;;;31.90;26.20;;;;;;4990867;28;20240;-56
2022/03/26 10:56:53;;;;;;;21.40;18.52;;;31.90;25.00;;;;;;4992848;28;20217;-53
2022/03/26 10:59:20;;;;;;;21.25;19.13;;;32.60;24.80;;;;;;4991378;28;20230;-52
2022/03/26 11:01:46;;;;;;;22.45;18.30;;;33.40;24.50;;;;;;4991855;28;20550;-50
2022/03/26 11:04:11;;;;;;;21.25;19.05;;;34.10;24.30;;;;;;4982976;28;20686;-55
2022/03/26 11:06:39;;;;;;;22.40;20.10;;;34.60;23.50;;;;;;4986256;28;20205;-56
2022/03/26 11:09:07;;;;;;;19.85;17.88;;;35.60;22.70;;;;;;4988641;28;20182;-54
2022/03/26 11:11:33;;;;;;;19.80;17.88;;;36.90;23.10;;;;;;4990225;28;20235;-49
2022/03/26 11:14:36;;;;;;;17.95;16.15;;;38.60;21.90;;;;;;4991588;28;20221;-57
2022/03/26 11:17:18;;;;;;;19.80;17.80;;;39.80;22.50;;;;;;4991381;28;20263;-60
2022/03/26 11:20:19;;;;;;;19.50;17.65;;;41.90;21.00;;;;;;4989409;28;20252;-54
2022/03/26 11:23:09;;;;;;;21.42;19.17;;;42.30;19.70;;;;;;4991448;28;20184;-56
2022/03/26 11:25:55;;;;;;;20.27;18.27;;;43.00;18.50;;;;;;4986722;28;20180;-57
2022/03/26 11:28:24;;;;;;;20.25;17.92;;;42.20;19.60;;;;;;4990750;28;20183;-55
2022/03/26 11:31:24;;;;;;;21.60;19.48;;;40.70;20.60;;;;;;4993578;28;20187;-57
2022/03/26 11:34:04;;;;;;;21.10;19.20;;;39.40;19.90;;;;;;4990389;28;20197;-52
2022/03/26 11:36:30;;;;;;;20.60;18.70;;;38.30;20.30;;;;;;4991183;28;20176;-54
2022/03/26 11:39:08;;;;;;;19.75;17.83;;;37.70;21.30;;;;;;4983604;28;20259;-55
2022/03/26 11:41:35;;;;;;;18.13;16.23;;;38.60;21.50;;;;;;4989216;28;20716;-58
2022/03/26 11:44:01;;;;;;;18.38;16.50;;;39.70;20.60;;;;;;4992519;28;20288;-54
2022/03/26 11:52:26;;;;;;;17.23;15.43;;;42.80;18.80;;;;;;4993573;28;20251;-54
2022/03/26 11:55:07;;;;;;;16.83;15.18;;;44.10;18.10;;;;;;4993310;28;20231;-53
2022/03/26 11:57:32;;;;;;;17.63;16.15;;;44.80;16.90;;;;;;4988790;28;20621;-60
2022/03/26 12:00:00;;;;;;;15.75;14.25;;;45.70;17.00;;;;;;4989855;28;20266;-56
2022/03/26 12:02:32;;;;;;;15.43;13.93;;;46.40;16.90;;;;;;4990431;28;20674;-57
2022/03/26 12:06:35;;;;;;;15.60;14.20;;;46.70;16.30;;;;;;4988428;28;20235;-54
2022/03/26 12:07:45;;;;;;;14.48;13.27;;;46.90;15.30;;;;;;4977578;28;20185;-57
2022/03/26 12:10:12;;;;;;;14.18;13.02;;;47.20;16.10;;;;;;4994355;28;20174;-56
2022/03/26 12:13:03;;;;;;;14.20;12.85;;;47.10;15.10;;;;;;4991027;28;20290;-57
2022/03/26 12:15:32;;;;;;;14.95;13.65;;;46.90;15.00;;;;;;4990227;28;20203;-54
2022/03/26 12:18:08;;;;;;;13.27;12.07;;;46.00;15.10;;;;;;4989871;28;20168;-58
2022/03/26 12:20:42;;;;;;;14.13;12.82;;;45.50;15.20;;;;;;4966545;28;20172;-56
2022/03/26 12:23:14;;;;;;;16.55;14.73;;;44.90;15.40;;;;;;4989967;28;20254;-57
2022/03/26 12:26:03;;;;;;;16.02;14.52;;;44.30;14.30;;;;;;4991853;28;20168;-59
2022/03/26 12:28:28;;;;;;;17.13;15.45;;;42.30;16.10;;;;;;4979935;28;20319;-57
2022/03/26 12:30:57;;;;;;;15.73;14.32;;;39.10;17.90;;;;;;4985090;28;20676;-56
2022/03/26 12:33:24;;;;;;;21.13;15.20;;;37.80;19.00;;;;;;4989727;28;20256;-57
2022/03/26 12:35:51;;;;;;;16.35;14.77;;;38.50;18.20;;;;;;4991049;28;20177;-53
2022/03/26 12:38:19;;;;;;;16.42;14.73;;;39.00;17.70;;;;;;4991249;28;20240;-57
2022/03/26 12:41:05;;;;;;;16.85;15.05;;;39.50;18.40;;;;;;4991267;28;20680;-56
2022/03/26 12:43:30;;;;;;;16.30;14.60;;;39.30;17.20;;;;;;4992601;28;20209;-55